Tom Price Western Australia
Tom Price Western Australia
Language:  English
Updated24/11/2017 2:20am 
 

METAR Reports

YPPD - Port Hedland Arr, Australia
Distance from station: NNE 256km
Updated: Fri, 24-Nov-2017 2:00am AWST
Clear
Clear
 Wind from NNE
Wind: NNE 7 km/h
Temperature: 26°C
Dew Point: 21°C
Humidity: 74%
Barometer: 1005 hPa
Clouds: Clear
Visibility: 10 km
2017/11/23 18:00 YPPD 231800Z AUTO 03004KT 9999 // NCD 26/21 Q1005
YPLM - Learmouth, Australia
Distance from station: W 351km
Updated: Fri, 24-Nov-2017 2:00am AWST
Clear
Clear
 Wind from SW
Wind: SW 15 km/h
Temperature: 25°C
Dew Point: 11°C
Humidity: 42%
Barometer: 1005 hPa
Clouds: Clear
Visibility: 10 km
2017/11/23 18:00 YPLM 231800Z AUTO 22008KT 9999 // NCD 25/11 Q1005
YTEF - Telfer Airport, Australia
Distance from station: E 497km
Updated: Fri, 24-Nov-2017 2:00am AWST
Clear
Clear
 Wind from SE
Wind: SE 28 km/h
Temperature: 27°C
Dew Point: -1°C
Humidity: 16%
Barometer: 1007 hPa
Clouds: Clear
2017/11/23 18:00 YTEF 231800Z AUTO 13015KT //// // NCD 27/M01 Q1007
 
YBRM - Broome Airport, Australia
Distance from station: NE 702km
Updated: Fri, 24-Nov-2017 2:00am AWST
Clear
Clear
 Wind from W
Wind: W 13 km/h
Temperature: 29°C
Heat Index: 34°C
Dew Point: 25°C
Humidity: 79%
Barometer: 1005 hPa
Clouds: Clear
Visibility: 10 km
2017/11/23 18:00 YBRM 231800Z AUTO 28007KT 9999 // NCD 29/25 Q1005
YGEL - Geraldton, Australia
Distance from station: SSW 763km
Updated: Fri, 24-Nov-2017 2:00am AWST
Clear
Clear
 Wind from SSE
Wind: SSE 19 km/h
Temperature: 16°C
Dew Point: 9°C
Humidity: 63%
Barometer: 1007 hPa
Clouds: Clear
Visibility: 10 km
2017/11/23 18:00 YGEL 231800Z AUTO 15010KT 9999 // NCD 16/09 Q1007 RF00.0/000.0
YCIN - Curtin/Derby, Australia
Distance from station: NE 854km
Updated: Fri, 24-Nov-2017 2:00am AWST
Clear
Clear
 Wind from SW
Wind: SW 11 km/h
Temperature: 27°C
Heat Index: 29°C
Dew Point: 22°C
Humidity: 74%
Barometer: 1004 hPa
Clouds: Clear
Visibility: 10 km
2017/11/23 18:00 YCIN 231800Z AUTO 23006KT 9999 // NCD 27/22 Q1004